Diego Aracena Airport

SCDA · Tarapacá, Chile

METAR history SCDA · Diego Aracena Airport

Below you see METARs of the last few days. Select a year to browse through older METARs, from the year 2007 onwards.

June 15, 2024

Time Code Weather Temp. Visibility Ceiling Wind METAR/SPECI
02:00
M
17 °C 10 km+ 2,000 ft 360° 360° 0 kt METAR SCDA 150600Z 00000KT 9999 OVC020 17/12 Q1016
01:00
M
17 °C 10 km+ 2,000 ft 200° 200° 5 kt METAR SCDA 150500Z 20005KT 9999 OVC020 17/12 Q1017
00:00
M
17 °C 10 km+ 1,900 ft 150° 150° 3 kt METAR SCDA 150400Z 15003KT 080V200 9999 OVC019 17/12 Q1017

June 14, 2024

Time Code Weather Temp. Visibility Ceiling Wind METAR/SPECI
23:00
M
17 °C 10 km+ 1,900 ft 210° 210° 4 kt METAR SCDA 150300Z 21004KT 170V240 9999 OVC019 17/12 Q1017
22:00
M
17 °C 10 km+ 2,100 ft 180° 180° 5 kt METAR SCDA 150200Z 18005KT 150V260 9999 OVC021 17/12 Q1017
21:00
M
17 °C 10 km+ 2,200 ft 190° 190° 8 kt METAR SCDA 150100Z 19008KT 9999 BKN022 17/13 Q1017
20:00
V
17 °C 10 km+ - 180° 180° 9 kt METAR SCDA 150000Z 18009KT 9999 FEW025 17/13 Q1017
19:00
V
17 °C 10 km+ - 210° 210° 13 kt METAR SCDA 142300Z 21013KT 9999 FEW030 17/13 Q1016
18:00
V
18 °C 10 km+ - 210° 210° 14 kt METAR SCDA 142200Z 21014KT 9999 FEW030 18/13 Q1016
17:00
V
18 °C 10 km+ - 220° 220° 13 kt METAR SCDA 142100Z 22013KT 9999 SCT030 18/13 Q1015
16:00
V
18 °C 10 km+ - 230° 230° 12 kt METAR SCDA 142000Z 23012KT 9999 FEW030 18/12 Q1015
15:00
V
19 °C 10 km+ - 230° 230° 12 kt METAR SCDA 141900Z 23012KT 9999 SCT030 19/12 Q1016
14:00
V
19 °C 10 km+ - 240° 240° 13 kt METAR SCDA 141800Z 24013KT 9999 FEW030 19/13 Q1017
13:00
V
19 °C 10 km+ - 230° 230° 12 kt METAR SCDA 141700Z 23012KT 9999 SCT030 19/13 Q1018
12:00
V
19 °C 10 km+ - 230° 230° 11 kt METAR SCDA 141600Z 23011KT 9999 FEW030 19/12 Q1018
11:00
V
19 °C 10 km+ - 230° 230° 10 kt METAR SCDA 141500Z 23010KT 9999 SCT026 19/12 Q1018
10:00
M
18 °C 10 km+ 2,500 ft 200° 200° 6 kt METAR SCDA 141400Z 20006KT 9999 BKN025 18/12 Q1019
09:00
V
17 °C 10 km+ - Var Var 2 kt METAR SCDA 141300Z VRB02KT 9999 SCT023 17/12 Q1018
08:00
V
16 °C 10 km+ - 160° 160° 5 kt METAR SCDA 141200Z 16005KT 9999 FEW026 16/11 Q1018
07:00
V
15 °C 10 km+ - 360° 360° 0 kt METAR SCDA 141100Z 00000KT 9999 SCT024 15/11 Q1017
06:00
V
16 °C 10 km+ - 150° 150° 4 kt METAR SCDA 141000Z 15004KT CAVOK 16/11 Q1017
05:00
V
16 °C 10 km+ - 360° 360° 0 kt METAR SCDA 140900Z 00000KT CAVOK 16/11 Q1016
04:00
V
16 °C 10 km+ - 360° 360° 0 kt METAR SCDA 140800Z 00000KT 9999 FEW026 16/13 Q1017
03:00
M
17 °C 10 km+ 2,700 ft 360° 360° 0 kt METAR SCDA 140700Z 00000KT 9999 BKN027 17/12 Q1017
02:00
V
18 °C 10 km+ - 180° 180° 7 kt METAR SCDA 140600Z 18007KT 9999 SCT024 18/13 Q1018
01:00
M
17 °C 10 km+ 2,100 ft 150° 150° 4 kt METAR SCDA 140500Z 15004KT 9999 BKN021 17/13 Q1018
00:00
M
16 °C 10 km+ 2,200 ft 160° 160° 7 kt METAR SCDA 140400Z 16007KT 9999 BKN022 16/13 Q1019

June 13, 2024

Time Code Weather Temp. Visibility Ceiling Wind METAR/SPECI
23:00
V
16 °C 10 km+ - 110° 110° 2 kt METAR SCDA 140300Z 11002KT CAVOK 16/13 Q1019
22:00
V
16 °C 10 km+ - 100° 100° 4 kt METAR SCDA 140200Z 10004KT CAVOK 16/12 Q1018
21:00
V
17 °C 10 km+ - 160° 160° 5 kt METAR SCDA 140100Z 16005KT CAVOK 17/13 Q1018
20:00
V
17 °C 10 km+ - 200° 200° 8 kt METAR SCDA 140000Z 20008KT CAVOK 17/13 Q1017
19:00
V
17 °C 10 km+ - 210° 210° 6 kt METAR SCDA 132300Z 21006KT CAVOK 17/13 Q1016
18:00
V
18 °C 10 km+ - 200° 200° 8 kt METAR SCDA 132200Z 20008KT 9999 FEW030 18/13 Q1016
17:00
V
18 °C 10 km+ - 220° 220° 12 kt METAR SCDA 132100Z 22012KT 9999 FEW028 18/14 Q1015
16:00
V
19 °C 10 km+ - 220° 220° 13 kt METAR SCDA 132000Z 22013KT CAVOK 19/13 Q1015
15:00
V
19 °C 10 km+ - 220° 220° 14 kt METAR SCDA 131900Z 22014KT CAVOK 19/13 Q1015
14:00
V
19 °C 10 km+ - 230° 230° 13 kt METAR SCDA 131800Z 23013KT CAVOK 19/12 Q1015
13:00
V
19 °C 10 km+ - 230° 230° 11 kt METAR SCDA 131700Z 23011KT CAVOK 19/12 Q1015
12:00
V
19 °C 10 km+ - 240° 240° 5 kt METAR SCDA 131600Z 24005KT 210V270 CAVOK 19/12 Q1016
11:00
V
19 °C 10 km+ - 230° 230° 6 kt METAR SCDA 131500Z 23006KT 180V290 9999 FEW026 19/12 Q1017
10:00
V
18 °C 10 km+ - 190° 190° 6 kt METAR SCDA 131400Z 19006KT 9999 SCT024 18/12 Q1018
09:00
M
17 °C 10 km+ 2,100 ft 190° 190° 5 kt METAR SCDA 131300Z 19005KT 9999 BKN021 17/12 Q1017
08:00
M
16 °C 10 km+ 2,100 ft 150° 150° 3 kt METAR SCDA 131200Z 15003KT 9999 BKN021 16/12 Q1016
07:00
V
15 °C 10 km+ - 150° 150° 3 kt METAR SCDA 131100Z 15003KT 9999 FEW021 15/11 Q1016
06:00
V
16 °C 10 km+ - 120° 120° 3 kt METAR SCDA 131000Z 12003KT 9999 FEW021 16/11 Q1016
05:00
M
16 °C 10 km+ 2,100 ft 090° 090° 3 kt METAR SCDA 130900Z 09003KT 9999 BKN021 16/12 Q1016
04:00
M
17 °C 10 km+ 2,000 ft 070° 070° 2 kt METAR SCDA 130800Z 07002KT 9999 OVC020 17/12 Q1016
02:00
M
17 °C 10 km+ 1,700 ft 140° 140° 3 kt METAR SCDA 130600Z 14003KT 9999 OVC017 17/13 Q1016
Report a change